• Join FlightAware (Why Join?)
  • Login
  • US Flag 
10:28PM EST


 

Airport Tracker/Info


-or-


 

Live Flight TrackerFlight Track Log ✈ ERR781 ✈ 22-Apr-2013 ✈ PASC / SCC - PAFA / FAI

Flight Track Log - Related Links

Times and Time Zones

All times are in EDT time to prevent confusion due to time zone crossing. See the ERR781 flight status page for this flight to view local times or setup timezone preferences in your user account.

Time Position Orientation Groundspeed Altitude Reporting Facility
EDT Latitude Longitude Course Direction KTS MPH feet Rate Location/Type
05:56PM 70.1667 -148.5500 180° South 160 184 2,400  Level Anchorage Center
05:57PM 70.1333 -148.4500 134° Southeast 180 207 4,100 1,500 Climbing Anchorage Center
05:58PM 70.0833 -148.4167 167° South 160 184 5,500 1,320 Climbing Anchorage Center
05:59PM 70.0333 -148.4167 180° South 160 184 6,800 1,440 Climbing Anchorage Center
06:00PM 69.9833 -148.4167 180° South 180 207 8,400 1,320 Climbing Anchorage Center
06:01PM 69.8101 -148.4167 180° South  Level FlightAware Approximate
06:01PM 69.9333 -148.4000 173° South 180 207 9,500  Level Anchorage Center
06:02PM 69.8833 -148.4000 180° South 190 219 11,000 1,320 Climbing Anchorage Center
06:03PM 69.8333 -148.3833 173° South 200 230 12,200 1,200 Climbing Anchorage Center
06:04PM 69.7833 -148.3833 180° South 200 230 13,400 1,140 Climbing Anchorage Center
06:05PM 69.7167 -148.3833 180° South 210 242 14,500 1,020 Climbing Anchorage Center
06:06PM 69.6667 -148.3667 173° South 210 242 15,500 1,020 Climbing Anchorage Center
06:07PM 69.6000 -148.3667 180° South 210 242 16,600 960 Climbing Anchorage Center
06:08PM 69.5500 -148.3500 173° South 220 253 17,500 780 Climbing Anchorage Center
06:09PM 69.4833 -148.3500 180° South 210 242 18,200 840 Climbing Anchorage Center
06:10PM 69.4167 -148.3333 175° South 230 265 19,200 900 Climbing Anchorage Center
06:11PM 69.3667 -148.3333 180° South 220 253 20,000 720 Climbing Anchorage Center
06:12PM 69.3000 -148.3167 175° South 230 265 20,700 840 Climbing Anchorage Center
06:13PM 69.2333 -148.3167 180° South 220 253 21,700 900 Climbing Anchorage Center
06:14PM 69.1833 -148.3000 173° South 220 253 22,500 600 Climbing Anchorage Center
06:15PM 69.1167 -148.3000 180° South 230 265 23,000 240 Climbing Anchorage Center
06:16PM 69.0500 -148.2833 175° South 250 288 23,000  Level Anchorage Center
06:17PM 68.9667 -148.2833 180° South 260 299 23,000  Level Anchorage Center
06:18PM 68.9000 -148.2667 175° South 260 299 23,000  Level Anchorage Center
06:19PM 68.8333 -148.2667 180° South 250 288 23,000  Level Anchorage Center
06:20PM 68.7667 -148.2500 175° South 260 299 23,000  Level Anchorage Center
06:21PM 68.6833 -148.2500 180° South 260 299 23,000  Level Anchorage Center
06:22PM 68.6167 -148.2333 175° South 250 288 23,000  Level Anchorage Center
06:24PM 68.4667 -148.2167 178° South 260 299 23,000  Level Anchorage Center
06:25PM 68.4000 -148.2167 180° South 260 299 23,000  Level Anchorage Center
06:26PM 68.3333 -148.2000 175° South 260 299 23,000  Level Anchorage Center
06:27PM 68.2500 -148.1833 176° South 250 288 23,000  Level Anchorage Center
06:28PM 68.1833 -148.1833 180° South 260 299 23,000  Level Anchorage Center
06:29PM 68.1167 -148.1667 175° South 250 288 23,000  Level Anchorage Center
06:30PM 68.0333 -148.1667 180° South 260 299 23,000  Level Anchorage Center
06:31PM 67.9667 -148.1667 180° South 260 299 23,000  Level Anchorage Center
06:32PM 67.9000 -148.1500 175° South 260 299 23,000  Level Anchorage Center
06:33PM 67.8333 -148.1333 175° South 250 288 23,000  Level Anchorage Center
06:34PM 67.7500 -148.1333 180° South 260 299 23,000  Level Anchorage Center
06:35PM 67.6833 -148.1333 180° South 250 288 23,000  Level Anchorage Center
06:36PM 67.6000 -148.1333 180° South 280 322 23,000  Level Anchorage Center
06:37PM 67.5333 -148.1167 175° South 280 322 23,000  Level Anchorage Center
06:38PM 67.4667 -148.1000 175° South 250 288 23,000  Level Anchorage Center
06:39PM 67.4000 -148.1000 180° South 250 288 23,000  Level Anchorage Center
06:40PM 67.3333 -148.0833 174° South 250 288 23,000  Level Anchorage Center
06:41PM 67.2500 -148.0833 180° South 250 288 23,000  Level Anchorage Center
06:42PM 67.1833 -148.0667 174° South 270 311 23,000  Level Anchorage Center
06:43PM 67.1167 -148.0667 180° South 260 299 23,000  Level Anchorage Center
06:44PM 67.0333 -148.0667 180° South 250 288 23,000  Level Anchorage Center
06:45PM 66.9667 -148.0500 174° South 270 311 23,000  Level Anchorage Center
06:46PM 66.9000 -148.0500 180° South 260 299 23,000  Level Anchorage Center
06:47PM 66.8333 -148.0333 174° South 260 299 23,000  Level Anchorage Center
06:48PM 66.7500 -148.0333 180° South 260 299 23,000  Level Anchorage Center
06:49PM 66.6833 -148.0333 180° South 260 299 23,000  Level Anchorage Center
06:50PM 66.6167 -148.0167 174° South 260 299 23,000  Level Anchorage Center
06:51PM 66.5333 -148.0167 180° South 260 299 23,000  Level Anchorage Center
06:52PM 66.4667 -148.0000 174° South 260 299 23,000  Level Anchorage Center
06:53PM 66.4000 -148.0000 180° South 260 299 23,000  Level Anchorage Center
06:54PM 66.3167 -147.9833 175° South 260 299 23,000 -360 Level Anchorage Center
06:55PM 66.2500 -147.9833 180° South 260 299 22,300 -840 Descending Anchorage Center
06:56PM 66.1667 -147.9667 175° South 280 322 21,400 -960 Descending Anchorage Center
06:57PM 66.1000 -147.9667 180° South 290 334 20,400 -1,140 Descending Anchorage Center
06:58PM 66.0167 -147.9500 175° South 300 345 19,200 -1,260 Descending Anchorage Center
06:59PM 65.9333 -147.9500 180° South 290 334 17,900 -1,020 Descending Anchorage Center
07:00PM 65.8500 -147.9333 175° South 280 322 17,200 -960 Descending Anchorage Center
07:01PM 65.7833 -147.9333 180° South 280 322 16,000 -1,200 Descending Anchorage Center
07:02PM 65.7000 -147.9333 180° South 280 322 14,900 -1,080 Descending Anchorage Center
07:03PM 65.6333 -147.9167 174° South 270 311 13,900 -1,020 Descending Anchorage Center
07:04PM 65.5500 -147.9167 180° South 260 299 12,900 -1,020 Descending Anchorage Center
07:05PM 65.4833 -147.9000 174° South 270 311 11,900 -1,020 Descending Anchorage Center
07:07PM 65.3797 -147.8966 178° South  Level FlightAware Approximate
07:14PM 64.9358 -147.8638 175° South  Level FlightAware Approximate
07:15PM 64.8726 -147.8512 175° South  Level FlightAware Approximate
07:16PM 64.8092 -147.8500 180° South  Level FlightAware Approximate
07:17PM 64.8000 -147.8500 180° South  Level FlightAware Approximate
07:18PM 64.8151 -147.8564 180° South  Level Estimated
07:19PM 64.8151 -147.8564 180° South  Level Estimated
07:20PM 64.8151 -147.8564 180° South  Level Estimated
07:21PM 64.8151 -147.8564 180° South  Level Estimated
07:22PM 64.8151 -147.8564 180° South  Level Estimated
07:23PM 64.8151 -147.8564 180° South  Level Estimated
07:24PM 64.8151 -147.8564 180° South  Level Estimated
07:25PM 64.8151 -147.8564 180° South  Level Estimated
07:26PM 64.8151 -147.8564 180° South  Level Estimated
07:27PM 64.8151 -147.8564 180° South  Level Estimated
07:28PM 64.8151 -147.8564 180° South  Level Estimated
07:29PM 64.8151 -147.8564 180° South  Level Estimated
07:30PM 64.8151 -147.8564 180° South  Level Estimated
07:31PM 64.8151 -147.8564 180° South  Level Estimated
07:32PM 64.8151 -147.8564 180° South  Level Estimated
07:33PM 64.8151 -147.8564 180° South  Level Estimated